sensor_id;sensor_type;location;lat;lon;timestamp;P1;durP1;ratioP1;P2;durP2;ratioP2
57667;SDS011;43499;52.366;12.912;2024-03-08T01:54:10;30.45;;;11.95;;
57667;SDS011;43499;52.366;12.912;2024-03-08T01:55:13;30.33;;;11.25;;
57667;SDS011;43499;52.366;12.912;2024-03-08T01:56:17;34.17;;;12.10;;
57667;SDS011;43499;52.366;12.912;2024-03-08T01:57:19;35.42;;;11.60;;
57667;SDS011;43499;52.366;12.912;2024-03-08T07:20:06;33.35;;;13.52;;
57667;SDS011;43499;52.366;12.912;2024-03-08T07:25:55;25.20;;;11.80;;
57667;SDS011;43499;52.366;12.912;2024-03-08T07:26:57;29.52;;;11.95;;
57667;SDS011;43499;52.366;12.912;2024-03-08T07:27:58;35.25;;;14.23;;
57667;SDS011;43499;52.366;12.912;2024-03-08T07:29:01;29.25;;;12.80;;
57667;SDS011;43499;52.366;12.912;2024-03-08T07:30:02;35.03;;;13.27;;
57667;SDS011;43499;52.366;12.912;2024-03-08T07:31:04;33.42;;;13.95;;
57667;SDS011;43499;52.366;12.912;2024-03-08T07:32:23;35.45;;;14.13;;
57667;SDS011;43499;52.366;12.912;2024-03-08T07:33:26;29.98;;;13.77;;
57667;SDS011;43499;52.366;12.912;2024-03-08T07:34:28;37.10;;;14.52;;
57667;SDS011;43499;52.366;12.912;2024-03-08T07:35:33;29.55;;;12.02;;
57667;SDS011;43499;52.366;12.912;2024-03-08T07:36:37;30.33;;;12.35;;
57667;SDS011;43499;52.366;12.912;2024-03-08T07:37:38;29.92;;;13.75;;
57667;SDS011;43499;52.366;12.912;2024-03-08T07:38:40;33.55;;;13.82;;
57667;SDS011;43499;52.366;12.912;2024-03-08T07:39:41;30.75;;;13.05;;
57667;SDS011;43499;52.366;12.912;2024-03-08T07:40:42;29.30;;;11.88;;
57667;SDS011;43499;52.366;12.912;2024-03-08T07:41:47;30.17;;;14.25;;
57667;SDS011;43499;52.366;12.912;2024-03-08T07:42:52;37.08;;;11.38;;
57667;SDS011;43499;52.366;12.912;2024-03-08T07:43:53;34.10;;;13.60;;
57667;SDS011;43499;52.366;12.912;2024-03-08T07:44:54;34.10;;;12.90;;
57667;SDS011;43499;52.366;12.912;2024-03-08T07:45:55;28.95;;;12.07;;
57667;SDS011;43499;52.366;12.912;2024-03-08T07:46:56;27.50;;;13.35;;
57667;SDS011;43499;52.366;12.912;2024-03-08T07:47:57;27.33;;;12.32;;
57667;SDS011;43499;52.366;12.912;2024-03-08T07:48:58;32.40;;;13.50;;
57667;SDS011;43499;52.366;12.912;2024-03-08T07:50:00;27.02;;;11.88;;
57667;SDS011;43499;52.366;12.912;2024-03-08T07:51:01;33.63;;;13.85;;
57667;SDS011;43499;52.366;12.912;2024-03-08T07:52:03;28.58;;;12.30;;
57667;SDS011;43499;52.366;12.912;2024-03-08T07:54:09;27.42;;;11.93;;
57667;SDS011;43499;52.366;12.912;2024-03-08T07:55:10;29.73;;;12.48;;
57667;SDS011;43499;52.366;12.912;2024-03-08T07:56:11;31.40;;;11.13;;
57667;SDS011;43499;52.366;12.912;2024-03-08T07:57:14;27.95;;;12.85;;
57667;SDS011;43499;52.366;12.912;2024-03-08T07:58:16;35.80;;;13.55;;
57667;SDS011;43499;52.366;12.912;2024-03-08T07:59:18;33.33;;;13.82;;
57667;SDS011;43499;52.366;12.912;2024-03-08T08:00:19;30.70;;;13.43;;
57667;SDS011;43499;52.366;12.912;2024-03-08T08:01:20;27.52;;;11.10;;
57667;SDS011;43499;52.366;12.912;2024-03-08T08:02:21;28.35;;;13.10;;
57667;SDS011;43499;52.366;12.912;2024-03-08T08:03:23;33.22;;;13.57;;
57667;SDS011;43499;52.366;12.912;2024-03-08T08:04:24;29.40;;;12.55;;
57667;SDS011;43499;52.366;12.912;2024-03-08T08:05:25;29.05;;;12.30;;
57667;SDS011;43499;52.366;12.912;2024-03-08T08:06:27;30.00;;;12.80;;
57667;SDS011;43499;52.366;12.912;2024-03-08T08:07:28;34.15;;;12.63;;
57667;SDS011;43499;52.366;12.912;2024-03-08T08:08:29;26.77;;;12.23;;
57667;SDS011;43499;52.366;12.912;2024-03-08T08:09:30;27.38;;;12.85;;
57667;SDS011;43499;52.366;12.912;2024-03-08T08:10:35;29.42;;;12.93;;
57667;SDS011;43499;52.366;12.912;2024-03-08T08:11:36;30.40;;;12.88;;
57667;SDS011;43499;52.366;12.912;2024-03-08T08:12:37;25.45;;;12.52;;
57667;SDS011;43499;52.366;12.912;2024-03-08T08:13:38;29.52;;;12.93;;
57667;SDS011;43499;52.366;12.912;2024-03-08T08:14:39;29.88;;;13.05;;
57667;SDS011;43499;52.366;12.912;2024-03-08T08:15:42;29.77;;;13.45;;
57667;SDS011;43499;52.366;12.912;2024-03-08T08:16:43;28.73;;;12.80;;
57667;SDS011;43499;52.366;12.912;2024-03-08T08:17:46;33.15;;;14.95;;
57667;SDS011;43499;52.366;12.912;2024-03-08T08:18:48;29.15;;;13.20;;
57667;SDS011;43499;52.366;12.912;2024-03-08T08:19:49;34.30;;;14.27;;
57667;SDS011;43499;52.366;12.912;2024-03-08T08:20:51;36.25;;;14.23;;
57667;SDS011;43499;52.366;12.912;2024-03-08T08:21:53;29.25;;;12.85;;
57667;SDS011;43499;52.366;12.912;2024-03-08T08:22:54;28.70;;;11.82;;
57667;SDS011;43499;52.366;12.912;2024-03-08T08:23:56;25.48;;;11.45;;
57667;SDS011;43499;52.366;12.912;2024-03-08T08:24:57;32.33;;;12.65;;
57667;SDS011;43499;52.366;12.912;2024-03-08T08:25:58;28.15;;;13.02;;
57667;SDS011;43499;52.366;12.912;2024-03-08T08:28:01;27.85;;;11.73;;
57667;SDS011;43499;52.366;12.912;2024-03-08T08:29:04;32.80;;;14.63;;
57667;SDS011;43499;52.366;12.912;2024-03-08T08:30:06;31.67;;;13.93;;
57667;SDS011;43499;52.366;12.912;2024-03-08T08:31:09;27.98;;;12.30;;
57667;SDS011;43499;52.366;12.912;2024-03-08T08:32:10;32.28;;;13.27;;
57667;SDS011;43499;52.366;12.912;2024-03-08T08:33:12;31.15;;;12.23;;
57667;SDS011;43499;52.366;12.912;2024-03-08T08:34:14;29.90;;;13.48;;
57667;SDS011;43499;52.366;12.912;2024-03-08T08:35:15;30.02;;;12.70;;
57667;SDS011;43499;52.366;12.912;2024-03-08T08:36:16;27.35;;;12.75;;
57667;SDS011;43499;52.366;12.912;2024-03-08T08:37:17;23.08;;;10.40;;
57667;SDS011;43499;52.366;12.912;2024-03-08T08:38:18;32.92;;;13.75;;
57667;SDS011;43499;52.366;12.912;2024-03-08T08:39:20;28.33;;;13.18;;
57667;SDS011;43499;52.366;12.912;2024-03-08T08:40:24;27.95;;;12.27;;
57667;SDS011;43499;52.366;12.912;2024-03-08T08:41:26;32.33;;;12.25;;
57667;SDS011;43499;52.366;12.912;2024-03-08T08:43:29;23.17;;;9.32;;
57667;SDS011;43499;52.366;12.912;2024-03-08T08:44:30;32.45;;;13.57;;
57667;SDS011;43499;52.366;12.912;2024-03-08T08:45:32;29.85;;;12.40;;
57667;SDS011;43499;52.366;12.912;2024-03-08T08:46:34;27.83;;;11.48;;
57667;SDS011;43499;52.366;12.912;2024-03-08T08:47:36;30.65;;;13.15;;
57667;SDS011;43499;52.366;12.912;2024-03-08T08:48:37;25.98;;;11.70;;
57667;SDS011;43499;52.366;12.912;2024-03-08T08:49:38;31.75;;;12.23;;
57667;SDS011;43499;52.366;12.912;2024-03-08T08:50:39;26.42;;;12.98;;
57667;SDS011;43499;52.366;12.912;2024-03-08T08:51:40;27.75;;;14.13;;
57667;SDS011;43499;52.366;12.912;2024-03-08T08:52:41;31.90;;;13.65;;
57667;SDS011;43499;52.366;12.912;2024-03-08T08:53:44;26.77;;;12.30;;
57667;SDS011;43499;52.366;12.912;2024-03-08T08:54:46;26.45;;;13.32;;
57667;SDS011;43499;52.366;12.912;2024-03-08T08:55:47;30.77;;;13.48;;
57667;SDS011;43499;52.366;12.912;2024-03-08T08:56:49;27.20;;;12.25;;
57667;SDS011;43499;52.366;12.912;2024-03-08T08:57:50;52.17;;;20.33;;
57667;SDS011;43499;52.366;12.912;2024-03-08T08:58:52;26.33;;;12.18;;
57667;SDS011;43499;52.366;12.912;2024-03-08T08:59:56;32.63;;;12.75;;
57667;SDS011;43499;52.366;12.912;2024-03-08T09:02:00;23.88;;;10.90;;
57667;SDS011;43499;52.366;12.912;2024-03-08T09:03:01;26.98;;;12.20;;
57667;SDS011;43499;52.366;12.912;2024-03-08T09:04:03;27.95;;;13.25;;
57667;SDS011;43499;52.366;12.912;2024-03-08T09:06:06;32.75;;;13.52;;
57667;SDS011;43499;52.366;12.912;2024-03-08T09:07:10;24.00;;;10.35;;
57667;SDS011;43499;52.366;12.912;2024-03-08T09:08:11;24.63;;;11.23;;
57667;SDS011;43499;52.366;12.912;2024-03-08T09:09:13;26.30;;;12.63;;
57667;SDS011;43499;52.366;12.912;2024-03-08T09:10:14;23.33;;;11.23;;
57667;SDS011;43499;52.366;12.912;2024-03-08T09:11:15;28.90;;;13.57;;
57667;SDS011;43499;52.366;12.912;2024-03-08T09:12:16;25.80;;;12.20;;
57667;SDS011;43499;52.366;12.912;2024-03-08T09:13:18;27.20;;;12.48;;
57667;SDS011;43499;52.366;12.912;2024-03-08T09:14:19;27.63;;;12.57;;
57667;SDS011;43499;52.366;12.912;2024-03-08T09:16:22;26.63;;;11.40;;
57667;SDS011;43499;52.366;12.912;2024-03-08T09:17:24;27.58;;;12.18;;
57667;SDS011;43499;52.366;12.912;2024-03-08T09:18:25;28.38;;;11.48;;
57667;SDS011;43499;52.366;12.912;2024-03-08T09:19:26;24.73;;;11.45;;
57667;SDS011;43499;52.366;12.912;2024-03-08T09:20:27;25.83;;;12.77;;
57667;SDS011;43499;52.366;12.912;2024-03-08T09:21:29;26.75;;;11.77;;
57667;SDS011;43499;52.366;12.912;2024-03-08T09:23:31;29.20;;;12.13;;
57667;SDS011;43499;52.366;12.912;2024-03-08T09:24:32;24.65;;;10.80;;
57667;SDS011;43499;52.366;12.912;2024-03-08T09:25:33;25.40;;;11.65;;
57667;SDS011;43499;52.366;12.912;2024-03-08T09:26:35;24.05;;;11.45;;
57667;SDS011;43499;52.366;12.912;2024-03-08T09:27:36;24.20;;;9.95;;
57667;SDS011;43499;52.366;12.912;2024-03-08T09:28:37;22.55;;;10.93;;
57667;SDS011;43499;52.366;12.912;2024-03-08T09:29:39;21.80;;;9.73;;
57667;SDS011;43499;52.366;12.912;2024-03-08T09:30:40;29.88;;;12.65;;
57667;SDS011;43499;52.366;12.912;2024-03-08T09:31:41;27.88;;;11.43;;
57667;SDS011;43499;52.366;12.912;2024-03-08T09:32:42;25.45;;;10.75;;
57667;SDS011;43499;52.366;12.912;2024-03-08T09:34:45;24.55;;;10.82;;
57667;SDS011;43499;52.366;12.912;2024-03-08T09:35:46;21.67;;;11.43;;
57667;SDS011;43499;52.366;12.912;2024-03-08T09:36:52;24.10;;;10.90;;
57667;SDS011;43499;52.366;12.912;2024-03-08T09:37:53;25.25;;;10.75;;
57667;SDS011;43499;52.366;12.912;2024-03-08T09:38:55;21.63;;;11.00;;
57667;SDS011;43499;52.366;12.912;2024-03-08T09:39:56;18.95;;;9.60;;
57667;SDS011;43499;52.366;12.912;2024-03-08T09:40:59;20.98;;;10.07;;
57667;SDS011;43499;52.366;12.912;2024-03-08T09:42:02;23.67;;;9.88;;
57667;SDS011;43499;52.366;12.912;2024-03-08T09:43:03;20.98;;;10.07;;
57667;SDS011;43499;52.366;12.912;2024-03-08T09:44:04;25.45;;;10.70;;
57667;SDS011;43499;52.366;12.912;2024-03-08T09:45:08;23.25;;;10.90;;
57667;SDS011;43499;52.366;12.912;2024-03-08T09:46:16;30.98;;;12.23;;
57667;SDS011;43499;52.366;12.912;2024-03-08T09:47:19;22.83;;;10.23;;
57667;SDS011;43499;52.366;12.912;2024-03-08T09:48:25;20.00;;;10.13;;
57667;SDS011;43499;52.366;12.912;2024-03-08T09:49:26;24.38;;;10.82;;
57667;SDS011;43499;52.366;12.912;2024-03-08T09:50:27;21.15;;;8.73;;
57667;SDS011;43499;52.366;12.912;2024-03-08T09:51:30;18.73;;;8.77;;
57667;SDS011;43499;52.366;12.912;2024-03-08T09:52:36;21.13;;;9.32;;
57667;SDS011;43499;52.366;12.912;2024-03-08T09:53:38;19.60;;;9.57;;
57667;SDS011;43499;52.366;12.912;2024-03-08T09:54:39;20.05;;;9.45;;
57667;SDS011;43499;52.366;12.912;2024-03-08T09:55:40;19.73;;;10.00;;
57667;SDS011;43499;52.366;12.912;2024-03-08T09:56:45;23.17;;;8.50;;
57667;SDS011;43499;52.366;12.912;2024-03-08T09:57:48;24.65;;;10.65;;
57667;SDS011;43499;52.366;12.912;2024-03-08T09:59:08;24.38;;;10.73;;
57667;SDS011;43499;52.366;12.912;2024-03-08T10:00:24;21.88;;;10.65;;
57667;SDS011;43499;52.366;12.912;2024-03-08T10:01:25;23.83;;;9.90;;
57667;SDS011;43499;52.366;12.912;2024-03-08T10:02:26;21.00;;;10.00;;
57667;SDS011;43499;52.366;12.912;2024-03-08T10:03:28;21.13;;;10.57;;
57667;SDS011;43499;52.366;12.912;2024-03-08T10:04:30;26.20;;;9.75;;
57667;SDS011;43499;52.366;12.912;2024-03-08T10:05:33;18.05;;;9.55;;
57667;SDS011;43499;52.366;12.912;2024-03-08T10:06:35;23.00;;;10.32;;
57667;SDS011;43499;52.366;12.912;2024-03-08T10:07:36;22.38;;;10.35;;
57667;SDS011;43499;52.366;12.912;2024-03-08T10:08:37;21.05;;;8.80;;
57667;SDS011;43499;52.366;12.912;2024-03-08T10:09:40;22.92;;;11.43;;
57667;SDS011;43499;52.366;12.912;2024-03-08T10:10:42;25.60;;;11.38;;
57667;SDS011;43499;52.366;12.912;2024-03-08T10:11:43;25.63;;;10.25;;
57667;SDS011;43499;52.366;12.912;2024-03-08T10:12:46;19.88;;;9.77;;
57667;SDS011;43499;52.366;12.912;2024-03-08T10:13:47;17.10;;;8.38;;
57667;SDS011;43499;52.366;12.912;2024-03-08T10:14:50;22.55;;;10.65;;
57667;SDS011;43499;52.366;12.912;2024-03-08T10:15:53;18.95;;;7.70;;
57667;SDS011;43499;52.366;12.912;2024-03-08T10:18:00;21.13;;;9.80;;
57667;SDS011;43499;52.366;12.912;2024-03-08T10:19:03;18.98;;;7.53;;
57667;SDS011;43499;52.366;12.912;2024-03-08T10:21:16;23.13;;;10.00;;
57667;SDS011;43499;52.366;12.912;2024-03-08T10:22:18;21.23;;;9.27;;
57667;SDS011;43499;52.366;12.912;2024-03-08T10:23:19;22.08;;;11.02;;
57667;SDS011;43499;52.366;12.912;2024-03-08T10:24:21;24.73;;;10.25;;
57667;SDS011;43499;52.366;12.912;2024-03-08T10:25:24;26.90;;;11.88;;
57667;SDS011;43499;52.366;12.912;2024-03-08T10:26:25;21.23;;;9.77;;
57667;SDS011;43499;52.366;12.912;2024-03-08T10:27:26;20.30;;;8.95;;
57667;SDS011;43499;52.366;12.912;2024-03-08T10:28:27;21.95;;;10.25;;
57667;SDS011;43499;52.366;12.912;2024-03-08T10:29:29;20.05;;;9.20;;
57667;SDS011;43499;52.366;12.912;2024-03-08T10:30:30;17.65;;;7.93;;
57667;SDS011;43499;52.366;12.912;2024-03-08T10:31:32;23.63;;;9.40;;
57667;SDS011;43499;52.366;12.912;2024-03-08T10:32:33;22.48;;;9.50;;
57667;SDS011;43499;52.366;12.912;2024-03-08T10:33:35;17.55;;;8.68;;
57667;SDS011;43499;52.366;12.912;2024-03-08T10:34:36;20.60;;;9.82;;
57667;SDS011;43499;52.366;12.912;2024-03-08T10:35:37;15.48;;;8.10;;
57667;SDS011;43499;52.366;12.912;2024-03-08T10:36:39;20.10;;;8.43;;
57667;SDS011;43499;52.366;12.912;2024-03-08T10:37:47;15.25;;;7.63;;
57667;SDS011;43499;52.366;12.912;2024-03-08T10:38:51;24.20;;;9.40;;
57667;SDS011;43499;52.366;12.912;2024-03-08T10:40:02;22.00;;;9.43;;
57667;SDS011;43499;52.366;12.912;2024-03-08T10:41:16;20.27;;;9.18;;
57667;SDS011;43499;52.366;12.912;2024-03-08T10:42:17;21.38;;;9.30;;
57667;SDS011;43499;52.366;12.912;2024-03-08T10:43:22;19.20;;;8.35;;
57667;SDS011;43499;52.366;12.912;2024-03-08T10:44:32;20.08;;;9.23;;
57667;SDS011;43499;52.366;12.912;2024-03-08T10:45:41;15.73;;;7.32;;
57667;SDS011;43499;52.366;12.912;2024-03-08T10:47:00;20.35;;;9.50;;
57667;SDS011;43499;52.366;12.912;2024-03-08T10:48:14;20.10;;;9.00;;
57667;SDS011;43499;52.366;12.912;2024-03-08T10:49:28;18.05;;;8.98;;
57667;SDS011;43499;52.366;12.912;2024-03-08T10:50:35;16.00;;;7.85;;
57667;SDS011;43499;52.366;12.912;2024-03-08T10:51:37;18.73;;;9.27;;
57667;SDS011;43499;52.366;12.912;2024-03-08T10:52:42;18.48;;;7.82;;
57667;SDS011;43499;52.366;12.912;2024-03-08T10:53:43;18.58;;;9.15;;
57667;SDS011;43499;52.366;12.912;2024-03-08T10:54:47;20.73;;;9.43;;
57667;SDS011;43499;52.366;12.912;2024-03-08T10:55:49;20.92;;;9.95;;
57667;SDS011;43499;52.366;12.912;2024-03-08T10:56:53;20.10;;;9.18;;
57667;SDS011;43499;52.366;12.912;2024-03-08T10:57:55;23.33;;;9.73;;
57667;SDS011;43499;52.366;12.912;2024-03-08T10:58:57;21.00;;;9.55;;
57667;SDS011;43499;52.366;12.912;2024-03-08T11:00:00;21.27;;;10.52;;
57667;SDS011;43499;52.366;12.912;2024-03-08T11:01:04;20.25;;;9.45;;
57667;SDS011;43499;52.366;12.912;2024-03-08T11:02:07;24.48;;;10.88;;
57667;SDS011;43499;52.366;12.912;2024-03-08T11:03:11;22.65;;;10.43;;
57667;SDS011;43499;52.366;12.912;2024-03-08T11:04:48;41.42;;;15.35;;
57667;SDS011;43499;52.366;12.912;2024-03-08T11:05:50;30.55;;;13.13;;
57667;SDS011;43499;52.366;12.912;2024-03-08T11:06:51;34.58;;;13.30;;
57667;SDS011;43499;52.366;12.912;2024-03-08T11:07:53;27.30;;;11.23;;
57667;SDS011;43499;52.366;12.912;2024-03-08T11:08:54;26.25;;;11.23;;
57667;SDS011;43499;52.366;12.912;2024-03-08T11:09:56;20.15;;;9.07;;
57667;SDS011;43499;52.366;12.912;2024-03-08T11:10:57;16.95;;;8.13;;
57667;SDS011;43499;52.366;12.912;2024-03-08T11:13:39;24.73;;;9.02;;
57667;SDS011;43499;52.366;12.912;2024-03-08T11:14:43;18.92;;;8.50;;
57667;SDS011;43499;52.366;12.912;2024-03-08T11:15:47;19.73;;;9.50;;
57667;SDS011;43499;52.366;12.912;2024-03-08T11:16:49;18.23;;;7.78;;
57667;SDS011;43499;52.366;12.912;2024-03-08T11:17:50;19.10;;;7.90;;
57667;SDS011;43499;52.366;12.912;2024-03-08T11:19:59;20.33;;;8.60;;
57667;SDS011;43499;52.366;12.912;2024-03-08T11:21:08;27.33;;;9.02;;
57667;SDS011;43499;52.366;12.912;2024-03-08T11:22:20;25.65;;;10.20;;
57667;SDS011;43499;52.366;12.912;2024-03-08T11:23:24;20.05;;;8.88;;
57667;SDS011;43499;52.366;12.912;2024-03-08T11:24:27;20.45;;;10.07;;
57667;SDS011;43499;52.366;12.912;2024-03-08T11:25:32;19.95;;;9.13;;
57667;SDS011;43499;52.366;12.912;2024-03-08T11:26:33;18.48;;;8.43;;
57667;SDS011;43499;52.366;12.912;2024-03-08T11:27:36;18.83;;;8.35;;
57667;SDS011;43499;52.366;12.912;2024-03-08T11:28:40;14.88;;;6.45;;
57667;SDS011;43499;52.366;12.912;2024-03-08T11:29:41;21.10;;;8.70;;
57667;SDS011;43499;52.366;12.912;2024-03-08T11:30:43;21.40;;;9.02;;
57667;SDS011;43499;52.366;12.912;2024-03-08T11:31:45;19.30;;;8.15;;
57667;SDS011;43499;52.366;12.912;2024-03-08T11:32:46;20.05;;;7.88;;
57667;SDS011;43499;52.366;12.912;2024-03-08T11:33:48;19.23;;;8.57;;
57667;SDS011;43499;52.366;12.912;2024-03-08T11:35:51;18.05;;;7.07;;
57667;SDS011;43499;52.366;12.912;2024-03-08T11:36:53;19.95;;;8.63;;
57667;SDS011;43499;52.366;12.912;2024-03-08T11:37:59;15.05;;;7.07;;
57667;SDS011;43499;52.366;12.912;2024-03-08T11:39:01;18.88;;;9.18;;
57667;SDS011;43499;52.366;12.912;2024-03-08T11:40:14;17.30;;;8.30;;
57667;SDS011;43499;52.366;12.912;2024-03-08T11:41:20;19.20;;;7.97;;
57667;SDS011;43499;52.366;12.912;2024-03-08T11:42:23;17.25;;;8.63;;
57667;SDS011;43499;52.366;12.912;2024-03-08T11:43:27;21.83;;;7.50;;
57667;SDS011;43499;52.366;12.912;2024-03-08T11:44:28;19.45;;;8.23;;
57667;SDS011;43499;52.366;12.912;2024-03-08T11:45:29;17.85;;;8.10;;
57667;SDS011;43499;52.366;12.912;2024-03-08T11:46:30;22.13;;;9.07;;
57667;SDS011;43499;52.366;12.912;2024-03-08T11:47:31;17.17;;;7.63;;
57667;SDS011;43499;52.366;12.912;2024-03-08T11:48:32;15.15;;;6.60;;
57667;SDS011;43499;52.366;12.912;2024-03-08T11:49:34;16.00;;;6.75;;
57667;SDS011;43499;52.366;12.912;2024-03-08T11:50:35;11.82;;;6.53;;
57667;SDS011;43499;52.366;12.912;2024-03-08T11:51:36;15.60;;;6.70;;
57667;SDS011;43499;52.366;12.912;2024-03-08T11:52:37;17.40;;;7.13;;
57667;SDS011;43499;52.366;12.912;2024-03-08T11:53:38;18.13;;;8.63;;
57667;SDS011;43499;52.366;12.912;2024-03-08T11:54:40;18.52;;;7.60;;
57667;SDS011;43499;52.366;12.912;2024-03-08T11:55:42;18.35;;;8.57;;
57667;SDS011;43499;52.366;12.912;2024-03-08T11:56:43;19.13;;;7.80;;
57667;SDS011;43499;52.366;12.912;2024-03-08T11:57:47;21.25;;;7.75;;
57667;SDS011;43499;52.366;12.912;2024-03-08T11:58:52;20.05;;;8.02;;
57667;SDS011;43499;52.366;12.912;2024-03-08T11:59:55;20.88;;;7.55;;
57667;SDS011;43499;52.366;12.912;2024-03-08T12:01:10;16.10;;;6.85;;
57667;SDS011;43499;52.366;12.912;2024-03-08T12:02:14;14.27;;;6.82;;
57667;SDS011;43499;52.366;12.912;2024-03-08T12:03:15;16.85;;;6.80;;
57667;SDS011;43499;52.366;12.912;2024-03-08T12:04:16;14.05;;;6.13;;
57667;SDS011;43499;52.366;12.912;2024-03-08T12:05:17;16.20;;;7.10;;
57667;SDS011;43499;52.366;12.912;2024-03-08T12:06:20;19.20;;;8.02;;
57667;SDS011;43499;52.366;12.912;2024-03-08T12:07:21;15.32;;;5.85;;
57667;SDS011;43499;52.366;12.912;2024-03-08T12:08:23;13.45;;;7.00;;
57667;SDS011;43499;52.366;12.912;2024-03-08T12:09:24;16.00;;;6.43;;
57667;SDS011;43499;52.366;12.912;2024-03-08T12:10:25;13.95;;;5.43;;
57667;SDS011;43499;52.366;12.912;2024-03-08T12:11:26;18.67;;;7.85;;
57667;SDS011;43499;52.366;12.912;2024-03-08T12:12:27;25.42;;;8.30;;
57667;SDS011;43499;52.366;12.912;2024-03-08T12:13:30;17.90;;;7.50;;
57667;SDS011;43499;52.366;12.912;2024-03-08T12:14:33;18.92;;;8.32;;
57667;SDS011;43499;52.366;12.912;2024-03-08T12:15:35;12.43;;;5.55;;
57667;SDS011;43499;52.366;12.912;2024-03-08T12:16:36;16.95;;;6.63;;
57667;SDS011;43499;52.366;12.912;2024-03-08T12:18:39;15.10;;;5.88;;
57667;SDS011;43499;52.366;12.912;2024-03-08T12:19:45;11.70;;;5.80;;
57667;SDS011;43499;52.366;12.912;2024-03-08T12:20:47;13.63;;;6.10;;
57667;SDS011;43499;52.366;12.912;2024-03-08T12:21:50;14.18;;;5.22;;
57667;SDS011;43499;52.366;12.912;2024-03-08T12:22:52;14.32;;;5.85;;
57667;SDS011;43499;52.366;12.912;2024-03-08T12:24:16;12.27;;;6.15;;
57667;SDS011;43499;52.366;12.912;2024-03-08T12:25:22;12.38;;;5.65;;
57667;SDS011;43499;52.366;12.912;2024-03-08T12:26:24;13.25;;;6.07;;
57667;SDS011;43499;52.366;12.912;2024-03-08T12:27:26;15.43;;;6.25;;
57667;SDS011;43499;52.366;12.912;2024-03-08T12:28:29;15.73;;;5.40;;
57667;SDS011;43499;52.366;12.912;2024-03-08T12:29:30;19.75;;;6.88;;
57667;SDS011;43499;52.366;12.912;2024-03-08T12:30:31;14.05;;;5.30;;
57667;SDS011;43499;52.366;12.912;2024-03-08T12:31:34;14.20;;;6.30;;
57667;SDS011;43499;52.366;12.912;2024-03-08T12:32:36;13.77;;;5.38;;
57667;SDS011;43499;52.366;12.912;2024-03-08T12:33:52;14.73;;;5.70;;
57667;SDS011;43499;52.366;12.912;2024-03-08T12:34:55;13.60;;;6.78;;
57667;SDS011;43499;52.366;12.912;2024-03-08T12:35:56;15.88;;;6.43;;
57667;SDS011;43499;52.366;12.912;2024-03-08T12:36:59;15.98;;;5.75;;
57667;SDS011;43499;52.366;12.912;2024-03-08T12:38:00;17.50;;;8.02;;
57667;SDS011;43499;52.366;12.912;2024-03-08T12:39:01;15.60;;;7.07;;
57667;SDS011;43499;52.366;12.912;2024-03-08T12:40:07;15.45;;;6.95;;
57667;SDS011;43499;52.366;12.912;2024-03-08T12:41:10;16.48;;;7.60;;
57667;SDS011;43499;52.366;12.912;2024-03-08T12:42:11;19.20;;;7.35;;
57667;SDS011;43499;52.366;12.912;2024-03-08T12:43:12;16.33;;;5.85;;
57667;SDS011;43499;52.366;12.912;2024-03-08T12:44:16;16.95;;;6.90;;
57667;SDS011;43499;52.366;12.912;2024-03-08T12:45:17;25.40;;;9.52;;
57667;SDS011;43499;52.366;12.912;2024-03-08T12:46:19;18.33;;;8.30;;
57667;SDS011;43499;52.366;12.912;2024-03-08T12:47:30;13.93;;;6.50;;
57667;SDS011;43499;52.366;12.912;2024-03-08T12:49:42;13.68;;;5.95;;
57667;SDS011;43499;52.366;12.912;2024-03-08T12:50:43;14.43;;;6.63;;
57667;SDS011;43499;52.366;12.912;2024-03-08T12:51:48;18.58;;;7.65;;
57667;SDS011;43499;52.366;12.912;2024-03-08T12:52:50;17.88;;;7.78;;
57667;SDS011;43499;52.366;12.912;2024-03-08T12:53:51;15.75;;;6.05;;
57667;SDS011;43499;52.366;12.912;2024-03-08T12:54:56;15.95;;;7.25;;
57667;SDS011;43499;52.366;12.912;2024-03-08T12:55:57;17.33;;;8.63;;
57667;SDS011;43499;52.366;12.912;2024-03-08T12:56:58;14.52;;;6.95;;
57667;SDS011;43499;52.366;12.912;2024-03-08T12:57:59;13.20;;;6.15;;
57667;SDS011;43499;52.366;12.912;2024-03-08T12:59:02;15.15;;;7.05;;
57667;SDS011;43499;52.366;12.912;2024-03-08T13:00:05;17.90;;;7.90;;
57667;SDS011;43499;52.366;12.912;2024-03-08T13:01:06;18.10;;;7.70;;
57667;SDS011;43499;52.366;12.912;2024-03-08T13:02:08;13.93;;;6.30;;
57667;SDS011;43499;52.366;12.912;2024-03-08T13:03:11;16.88;;;7.00;;
57667;SDS011;43499;52.366;12.912;2024-03-08T13:04:12;17.98;;;7.13;;
57667;SDS011;43499;52.366;12.912;2024-03-08T13:05:14;12.35;;;5.80;;
57667;SDS011;43499;52.366;12.912;2024-03-08T13:06:15;18.08;;;6.90;;
57667;SDS011;43499;52.366;12.912;2024-03-08T13:07:16;11.63;;;5.57;;
57667;SDS011;43499;52.366;12.912;2024-03-08T13:08:17;14.73;;;6.15;;
57667;SDS011;43499;52.366;12.912;2024-03-08T13:09:18;11.50;;;6.20;;
57667;SDS011;43499;52.366;12.912;2024-03-08T13:10:20;12.25;;;5.57;;
57667;SDS011;43499;52.366;12.912;2024-03-08T13:11:22;14.43;;;7.07;;
57667;SDS011;43499;52.366;12.912;2024-03-08T13:12:26;16.17;;;6.75;;
57667;SDS011;43499;52.366;12.912;2024-03-08T13:13:27;14.77;;;5.85;;
57667;SDS011;43499;52.366;12.912;2024-03-08T13:14:28;17.35;;;6.95;;
57667;SDS011;43499;52.366;12.912;2024-03-08T13:15:32;20.40;;;5.45;;
57667;SDS011;43499;52.366;12.912;2024-03-08T13:16:34;15.73;;;7.15;;
57667;SDS011;43499;52.366;12.912;2024-03-08T13:17:35;10.48;;;5.53;;
57667;SDS011;43499;52.366;12.912;2024-03-08T13:19:38;12.35;;;5.13;;
57667;SDS011;43499;52.366;12.912;2024-03-08T13:20:39;14.00;;;6.63;;
57667;SDS011;43499;52.366;12.912;2024-03-08T13:21:40;14.98;;;4.75;;
57667;SDS011;43499;52.366;12.912;2024-03-08T13:22:41;19.73;;;5.80;;
57667;SDS011;43499;52.366;12.912;2024-03-08T13:23:42;16.35;;;6.55;;
57667;SDS011;43499;52.366;12.912;2024-03-08T13:24:46;10.70;;;5.10;;
57667;SDS011;43499;52.366;12.912;2024-03-08T13:25:48;12.15;;;5.25;;
57667;SDS011;43499;52.366;12.912;2024-03-08T13:26:50;17.80;;;6.25;;
57667;SDS011;43499;52.366;12.912;2024-03-08T13:27:51;12.75;;;6.05;;
57667;SDS011;43499;52.366;12.912;2024-03-08T13:28:54;14.27;;;5.40;;
57667;SDS011;43499;52.366;12.912;2024-03-08T13:29:55;8.73;;;3.20;;
57667;SDS011;43499;52.366;12.912;2024-03-08T13:30:56;13.13;;;6.28;;
57667;SDS011;43499;52.366;12.912;2024-03-08T13:32:02;16.33;;;6.00;;
57667;SDS011;43499;52.366;12.912;2024-03-08T13:33:04;16.17;;;6.80;;
57667;SDS011;43499;52.366;12.912;2024-03-08T13:34:05;14.85;;;5.20;;
57667;SDS011;43499;52.366;12.912;2024-03-08T13:35:06;14.57;;;6.70;;
57667;SDS011;43499;52.366;12.912;2024-03-08T13:36:13;15.10;;;6.85;;
57667;SDS011;43499;52.366;12.912;2024-03-08T13:37:21;17.13;;;6.03;;
57667;SDS011;43499;52.366;12.912;2024-03-08T13:38:22;19.08;;;7.15;;
57667;SDS011;43499;52.366;12.912;2024-03-08T13:39:23;15.45;;;6.05;;
57667;SDS011;43499;52.366;12.912;2024-03-08T13:40:26;11.98;;;5.45;;
57667;SDS011;43499;52.366;12.912;2024-03-08T13:41:27;14.30;;;6.70;;
57667;SDS011;43499;52.366;12.912;2024-03-08T13:42:28;14.73;;;5.53;;